Time;durP1;ratioP1;P1;durP2;ratioP2;P2;SDS_P1;SDS_P2;PMS_P1;PMS_P2;Temp;Humidity;BMP_temperature;BMP_pressure;BME280_temperature;BME280_humidity;BME280_pressure;Samples;Min_cycle;Max_cycle;Signal;HPM_P1;HPM_P2
2023/10/03 00:01:03;;;;;;;23.40;8.10;;;;;;;11.13;60.94;101433.91;124459;1102;104092;-74
2023/10/03 00:03:44;;;;;;;21.67;7.70;;;;;;;11.10;61.46;101433.77;124221;1102;104169;-74
2023/10/03 00:06:16;;;;;;;21.57;7.90;;;;;;;11.04;61.71;101428.22;124239;1102;101823;-74
2023/10/03 00:08:47;;;;;;;25.17;7.77;;;;;;;10.99;62.00;101434.09;124338;1102;104169;-74
2023/10/03 00:11:22;;;;;;;21.57;7.77;;;;;;;10.97;61.55;101434.02;124427;1101;104163;-74
2023/10/03 00:13:54;;;;;;;21.80;7.37;;;;;;;10.94;61.64;101432.12;124344;1102;104711;-73
2023/10/03 00:16:26;;;;;;;21.77;7.77;;;;;;;10.91;61.96;101429.35;124132;1102;104249;-73
2023/10/03 00:18:57;;;;;;;22.30;8.10;;;;;;;10.88;61.67;101426.57;124300;1101;102144;-73
2023/10/03 00:21:28;;;;;;;21.93;7.73;;;;;;;10.86;61.70;101424.69;124518;1102;102726;-73
2023/10/03 00:24:01;;;;;;;20.80;7.37;;;;;;;10.82;61.71;101430.63;124075;1102;104396;-73
2023/10/03 00:26:33;;;;;;;20.80;6.97;;;;;;;10.77;62.16;101426.04;124202;1100;104066;-73
2023/10/03 00:29:09;;;;;;;22.07;7.40;;;;;;;10.74;62.55;101422.38;124221;1100;104169;-73
2023/10/03 00:31:40;;;;;;;22.00;8.10;;;;;;;10.70;62.85;101426.55;124311;1102;102018;-73
2023/10/03 00:34:14;;;;;;;24.77;7.40;;;;;;;10.67;62.70;101429.02;124340;1100;104217;-73
2023/10/03 00:36:49;;;;;;;21.77;7.80;;;;;;;10.66;63.21;101428.94;124253;1102;104197;-73
2023/10/03 00:39:18;;;;;;;;;;;;;;;10.64;64.11;101441.98;124296;1102;101858;-73
2023/10/03 00:41:49;;;;;;;25.63;8.17;;;;;;;10.61;63.81;101437.50;124158;1102;104245;-73
2023/10/03 00:44:21;;;;;;;24.37;8.03;;;;;;;10.57;63.62;101438.16;124203;1102;102484;-73
2023/10/03 00:46:53;;;;;;;24.10;8.70;;;;;;;10.55;63.49;101436.27;124221;1102;104251;-73
2023/10/03 00:49:28;;;;;;;22.20;7.83;;;;;;;10.52;63.73;101436.15;124157;1101;104361;-73
2023/10/03 00:52:00;;;;;;;23.37;7.93;;;;;;;10.49;63.67;101430.75;124241;1102;104290;-73
2023/10/03 00:54:33;;;;;;;20.47;7.77;;;;;;;10.45;64.07;101440.16;124239;1102;104210;-73
2023/10/03 00:57:05;;;;;;;27.30;8.00;;;;;;;10.43;63.79;101437.45;124198;1102;104326;-74
2023/10/03 00:59:38;;;;;;;23.17;7.87;;;;;;;10.43;64.17;101429.58;124118;1102;104213;-73
2023/10/03 01:02:10;;;;;;;24.55;8.10;;;;;;;10.41;64.16;101436.48;124108;1102;104156;-73
2023/10/03 01:04:41;;;;;;;22.13;7.70;;;;;;;10.41;64.25;101433.86;124130;1102;104335;-73
2023/10/03 01:07:14;;;;;;;21.87;7.83;;;;;;;10.39;63.50;101426.73;124096;1102;104268;-73
2023/10/03 01:09:46;;;;;;;24.63;7.77;;;;;;;10.38;63.63;101424.95;124125;1102;104179;-73
2023/10/03 01:12:18;;;;;;;22.87;8.43;;;;;;;10.38;64.23;101424.95;124141;1102;102092;-73
2023/10/03 01:14:49;;;;;;;20.63;7.30;;;;;;;10.34;64.20;101429.11;124209;1102;104083;-73
2023/10/03 01:17:22;;;;;;;19.93;7.77;;;;;;;10.34;64.48;101426.48;124125;1101;104166;-73
2023/10/03 01:19:54;;;;;;;20.32;7.10;;;;;;;10.31;64.64;101421.05;124132;1102;104198;-73
2023/10/03 01:22:27;;;;;;;23.30;7.83;;;;;;;10.33;64.62;101426.41;124196;1100;104160;-73
2023/10/03 01:24:59;;;;;;;23.87;7.37;;;;;;;10.34;65.05;101430.84;124079;1101;104241;-73
2023/10/03 01:27:31;;;;;;;23.50;7.60;;;;;;;10.32;65.40;101425.48;124073;1102;104326;-73
2023/10/03 01:30:02;;;;;;;23.63;7.83;;;;;;;10.31;64.71;101425.41;124215;1101;104194;-73
2023/10/03 01:32:35;;;;;;;24.13;8.43;;;;;;;10.29;65.29;101420.08;124229;1102;104230;-73
2023/10/03 01:35:11;;;;;;;20.17;7.50;;;;;;;10.26;65.37;101425.17;124217;1102;104638;-73
2023/10/03 01:37:45;;;;;;;22.77;7.80;;;;;;;10.24;65.14;101421.58;124219;1102;102269;-73
2023/10/03 01:40:16;;;;;;;;;;;;;;;10.22;66.30;101417.95;124168;1100;103683;-73
2023/10/03 01:42:48;;;;;;;23.83;7.53;;;;;;;10.21;64.88;101417.06;124134;1102;104159;-73
2023/10/03 01:45:22;;;;;;;23.17;7.60;;;;;;;10.21;65.22;101403.05;124092;1102;104269;-73
2023/10/03 01:47:54;;;;;;;22.35;8.20;;;;;;;10.20;64.96;101415.25;124174;1102;104242;-73
2023/10/03 01:50:28;;;;;;;23.47;8.03;;;;;;;10.19;64.93;101410.84;124260;1102;104189;-72
2023/10/03 01:53:00;;;;;;;19.77;7.30;;;;;;;10.19;65.17;101407.30;124214;1101;104166;-72
2023/10/03 01:55:31;;;;;;;22.70;7.83;;;;;;;10.18;65.70;101410.77;124203;1102;101939;-73
2023/10/03 01:58:05;;;;;;;22.70;7.80;;;;;;;10.16;65.49;101405.44;124079;1102;104223;-73
2023/10/03 02:00:37;;;;;;;24.13;8.07;;;;;;;10.15;65.24;101410.61;124198;1102;101975;-73
2023/10/03 02:03:12;;;;;;;24.53;8.07;;;;;;;10.13;65.61;101406.98;124152;1101;104213;-73
2023/10/03 02:05:44;;;;;;;26.47;8.60;;;;;;;10.12;66.41;101407.82;124074;1102;104387;-72
2023/10/03 02:08:16;;;;;;;24.33;8.60;;;;;;;10.07;65.68;101403.23;124190;1102;104182;-72
2023/10/03 02:10:49;;;;;;;24.00;7.97;;;;;;;10.04;66.32;101403.07;124108;1102;104230;-73
2023/10/03 02:13:22;;;;;;;24.37;7.83;;;;;;;10.02;66.21;101412.59;124131;1102;104207;-73
2023/10/03 02:15:56;;;;;;;26.07;8.30;;;;;;;10.00;66.71;101406.37;124188;1102;104169;-72
2023/10/03 02:18:27;;;;;;;22.13;7.65;;;;;;;9.98;65.64;101409.72;124108;1102;101998;-73
2023/10/03 02:21:01;;;;;;;25.77;8.23;;;;;;;9.95;66.42;101406.94;124209;1102;104319;-72
2023/10/03 02:23:33;;;;;;;24.87;8.38;;;;;;;9.92;66.00;101410.28;124153;1102;104270;-72
2023/10/03 02:26:10;;;;;;;22.40;7.30;;;;;;;9.89;65.98;101410.13;124173;1102;104741;-72
2023/10/03 02:28:42;;;;;;;27.67;8.03;;;;;;;9.84;66.84;101415.12;124171;1099;104243;-72
2023/10/03 02:31:15;;;;;;;27.77;8.60;;;;;;;9.79;67.39;101411.37;124147;1099;104383;-73
2023/10/03 02:33:46;;;;;;;21.60;7.80;;;;;;;9.74;67.08;101411.92;124134;1102;103658;-73
2023/10/03 02:36:17;;;;;;;23.60;7.73;;;;;;;9.67;67.09;101413.33;124150;1102;102890;-73
2023/10/03 02:38:49;;;;;;;28.33;8.93;;;;;;;9.62;67.58;101413.08;124150;1102;101833;-73
2023/10/03 02:41:22;;;;;;;24.40;7.97;;;;;;;9.60;67.30;101416.42;124214;1102;101986;-73
2023/10/03 02:43:55;;;;;;;24.83;8.23;;;;;;;9.57;67.26;101419.80;124132;1101;104213;-73
2023/10/03 02:46:30;;;;;;;23.80;8.33;;;;;;;9.55;68.38;101416.17;124134;1102;104208;-73
2023/10/03 02:49:02;;;;;;;25.13;9.00;;;;;;;9.51;68.44;101407.25;124243;1102;102176;-73
2023/10/03 02:51:33;;;;;;;23.33;8.67;;;;;;;9.48;68.13;101416.67;124292;1101;101995;-73
2023/10/03 02:54:05;;;;;;;26.83;9.00;;;;;;;9.48;68.11;101411.44;124246;1100;104383;-73
2023/10/03 02:56:36;;;;;;;27.07;8.53;;;;;;;9.47;67.89;101405.30;124224;1102;102221;-73
2023/10/03 02:59:08;;;;;;;20.57;7.97;;;;;;;9.49;67.88;101413.21;124275;1102;104245;-73
2023/10/03 03:01:40;;;;;;;25.03;8.47;;;;;;;9.50;68.04;101407.17;124319;1102;104335;-73
2023/10/03 03:04:15;;;;;;;23.73;9.00;;;;;;;9.47;68.06;101405.30;124372;1102;104182;-73
2023/10/03 03:06:46;;;;;;;;;;;;;;;9.43;69.56;101411.18;124412;1101;104238;-73
2023/10/03 03:09:23;;;;;;;28.27;8.67;;;;;;;9.39;68.32;101416.17;124303;1102;102047;-73
2023/10/03 03:11:55;;;;;;;23.57;8.43;;;;;;;9.33;69.34;101419.34;124123;1102;104271;-72
2023/10/03 03:14:26;;;;;;;25.07;8.60;;;;;;;9.27;69.19;101419.92;124103;1102;104245;-72
2023/10/03 03:16:57;;;;;;;24.60;9.10;;;;;;;9.23;69.33;101417.05;124112;1100;101977;-72
2023/10/03 03:19:28;;;;;;;26.27;9.47;;;;;;;9.22;69.52;101420.47;124167;1102;101912;-72
2023/10/03 03:22:04;;;;;;;29.13;9.67;;;;;;;9.19;69.66;101415.95;124095;1102;104370;-72
2023/10/03 03:24:35;;;;;;;25.47;8.70;;;;;;;9.18;69.30;101414.17;124140;1099;102233;-72
2023/10/03 03:27:11;;;;;;;23.70;8.83;;;;;;;9.17;69.55;101417.59;124158;1099;104179;-72
2023/10/03 03:30:10;;;;;;;25.97;9.43;;;;;;;9.16;69.54;101415.78;124153;1101;101993;-72
2023/10/03 03:32:34;;;;;;;24.17;8.20;;;;;;;9.15;69.85;101416.61;125347;1100;104300;-72
2023/10/03 03:35:09;;;;;;;22.60;8.23;;;;;;;9.13;70.08;101419.14;124127;1102;104408;-73
2023/10/03 03:37:40;;;;;;;24.23;8.20;;;;;;;9.12;69.81;101424.30;124242;1102;104345;-73
2023/10/03 03:40:26;;;;;;;24.73;8.47;;;;;;;9.10;69.99;101418.05;124127;1102;104258;-73
2023/10/03 03:43:00;;;;;;;21.67;8.77;;;;;;;9.09;69.56;101417.16;124154;1102;104245;-73
2023/10/03 03:45:31;;;;;;;25.50;8.33;;;;;;;9.09;69.84;101430.25;124228;1102;104242;-73
2023/10/03 03:48:03;;;;;;;26.13;8.53;;;;;;;9.06;69.89;101429.19;124202;1102;104248;-72
2023/10/03 03:50:37;;;;;;;24.57;9.20;;;;;;;8.99;70.81;101427.91;124206;1102;101890;-72
2023/10/03 03:53:10;;;;;;;23.47;7.97;;;;;;;8.95;70.04;101432.08;124098;1102;104293;-73
2023/10/03 03:55:42;;;;;;;25.73;8.33;;;;;;;8.93;70.66;101423.25;124155;1100;104277;-72
2023/10/03 03:58:16;;;;;;;25.60;8.47;;;;;;;8.93;70.26;101425.87;124125;1102;101930;-72
2023/10/03 04:00:50;;;;;;;21.77;7.53;;;;;;;8.93;70.34;101427.59;124154;1102;102095;-72
2023/10/03 04:03:23;;;;;;;26.77;8.60;;;;;;;8.93;70.93;101428.48;124300;1102;102045;-71
2023/10/03 04:05:57;;;;;;;24.00;8.07;;;;;;;8.91;70.91;101424.89;124299;1102;104173;-72
2023/10/03 04:08:29;;;;;;;21.73;8.23;;;;;;;8.90;70.72;101422.19;124334;1102;102121;-72
2023/10/03 04:11:01;;;;;;;24.07;8.47;;;;;;;8.90;70.79;101430.03;124219;1101;104233;-72
2023/10/03 04:13:38;;;;;;;30.47;8.13;;;;;;;8.89;71.49;101422.98;124171;1102;102006;-72
2023/10/03 04:16:12;;;;;;;24.33;8.83;;;;;;;8.88;70.94;101422.09;124301;1102;101903;-72
2023/10/03 04:18:44;;;;;;;22.22;8.25;;;;;;;8.89;71.28;101429.11;124547;1102;102111;-71
2023/10/03 04:21:15;;;;;;;27.80;9.20;;;;;;;8.88;71.63;101429.95;124203;1102;104255;-72
2023/10/03 04:23:48;;;;;;;28.07;8.97;;;;;;;8.86;71.71;101428.94;124395;1099;102022;-71
2023/10/03 04:26:19;;;;;;;23.00;8.30;;;;;;;8.85;71.29;101435.01;124402;1099;104207;-73
2023/10/03 04:28:51;;;;;;;25.43;8.60;;;;;;;8.83;71.97;101436.61;124735;1101;104293;-75
2023/10/03 04:31:22;;;;;;;26.30;8.67;;;;;;;8.84;71.73;101441.05;125694;1102;101846;-75
2023/10/03 04:33:56;;;;;;;26.30;8.40;;;;;;;8.84;71.19;101433.19;126688;1100;102030;-75
2023/10/03 04:36:28;;;;;;;24.40;8.30;;;;;;;8.88;71.90;101442.11;124881;1102;104194;-74
2023/10/03 04:39:03;;;;;;;28.33;9.20;;;;;;;8.91;71.88;101439.67;125357;1101;104245;-74
2023/10/03 04:41:35;;;;;;;26.27;9.60;;;;;;;8.96;71.11;101444.37;126089;1101;101940;-73
2023/10/03 04:44:08;;;;;;;23.30;7.87;;;;;;;9.02;71.74;101443.80;125617;1102;102038;-79
2023/10/03 04:46:39;;;;;;;28.53;8.93;;;;;;;9.05;71.64;101441.35;124250;1101;104243;-72
2023/10/03 04:49:12;;;;;;;24.83;8.23;;;;;;;9.03;71.68;101442.99;124248;1102;104248;-75
2023/10/03 04:51:46;;;;;;;25.20;8.20;;;;;;;8.99;72.32;101441.00;124174;1100;104339;-75
2023/10/03 04:54:19;;;;;;;25.97;7.40;;;;;;;9.00;72.81;101448.05;124230;1102;102035;-72
2023/10/03 04:56:50;;;;;;;24.67;8.33;;;;;;;8.98;72.59;101453.20;124294;1099;104182;-75
2023/10/03 04:59:22;;;;;;;26.73;8.50;;;;;;;8.98;72.41;101450.58;124451;1102;104332;-72
2023/10/03 05:01:54;;;;;;;31.00;7.93;;;;;;;8.99;72.67;101455.02;124647;1102;104203;-74
2023/10/03 05:04:26;;;;;;;25.27;8.87;;;;;;;8.96;72.74;101454.84;125499;1102;101947;-76
2023/10/03 05:07:00;;;;;;;27.87;8.77;;;;;;;9.07;72.59;101462.38;125928;1099;102081;-75
2023/10/03 05:09:33;;;;;;;22.77;8.37;;;;;;;9.13;72.07;101458.42;125955;1101;101962;-73
2023/10/03 05:12:12;;;;;;;25.10;9.03;;;;;;;9.23;72.86;101458.95;124286;1098;101914;-73
2023/10/03 05:14:48;;;;;;;24.93;8.77;;;;;;;9.32;73.34;101456.84;124818;1099;104235;-73
2023/10/03 05:17:21;;;;;;;24.33;8.57;;;;;;;9.37;72.81;101457.10;125050;1102;104172;-76
2023/10/03 05:19:52;;;;;;;29.53;9.70;;;;;;;9.39;73.15;101458.97;124373;1102;104245;-74
2023/10/03 05:22:28;;;;;;;25.00;8.97;;;;;;;9.52;72.95;101471.02;124938;1102;101807;-73
2023/10/03 05:25:02;;;;;;;24.30;8.20;;;;;;;9.61;72.99;101458.43;125785;1100;104372;-72
2023/10/03 05:27:34;;;;;;;29.63;9.00;;;;;;;9.62;73.60;101452.38;124498;1102;104300;-72
2023/10/03 05:30:09;;;;;;;24.60;8.70;;;;;;;9.68;72.77;101455.34;124660;1102;102400;-73
2023/10/03 05:32:42;;;;;;;31.50;8.90;;;;;;;9.77;72.67;101456.65;126246;1102;102079;-74
2023/10/03 05:35:22;;;;;;;26.77;8.50;;;;;;;9.78;73.20;101459.35;124769;1102;102102;-75
2023/10/03 05:37:55;;;;;;;28.40;8.83;;;;;;;9.82;73.35;101452.58;125674;1102;104313;-75
2023/10/03 05:40:31;;;;;;;30.60;8.63;;;;;;;9.89;72.88;101459.94;126956;1093;102365;-73
2023/10/03 05:43:17;;;;;;;28.40;9.07;;;;;;;10.02;72.30;101466.73;124349;1102;102083;-74
2023/10/03 05:46:01;;;;;;;30.33;9.07;;;;;;;10.13;72.80;101470.84;125709;1102;102032;-80
2023/10/03 05:48:57;;;;;;;33.97;10.83;;;;;;;10.21;72.05;101473.87;126022;1101;112869;-78
2023/10/03 05:51:55;;;;;;;30.63;10.00;;;;;;;10.28;72.45;101469.84;125388;1101;103635;-76
2023/10/03 05:54:33;;;;;;;31.03;9.40;;;;;;;10.38;72.83;101467.81;125969;1100;102013;-73
2023/10/03 05:57:20;;;;;;;28.47;10.60;;;;;;;10.45;72.44;101474.27;125234;1099;101929;-76
2023/10/03 05:59:59;;;;;;;26.43;10.40;;;;;;;10.42;73.02;101475.03;125405;1102;101990;-74
2023/10/03 06:02:35;;;;;;;26.30;10.47;;;;;;;10.45;71.91;101474.27;125154;1102;104241;-73
2023/10/03 06:05:11;;;;;;;32.83;11.37;;;;;;;10.56;71.80;101475.72;126920;1098;101671;-74
2023/10/03 06:07:48;;;;;;;31.53;10.40;;;;;;;10.65;72.03;101477.03;125113;1099;102078;-75
2023/10/03 06:10:22;;;;;;;28.93;10.83;;;;;;;10.67;71.94;101476.27;125822;1099;101849;-75
2023/10/03 06:12:59;;;;;;;29.70;10.77;;;;;;;10.73;72.41;101476.58;125506;1099;101797;-75
2023/10/03 06:15:35;;;;;;;30.63;9.67;;;;;;;10.80;71.80;101477.81;124338;1102;102073;-73
2023/10/03 06:18:22;;;;;;;26.67;9.50;;;;;;;10.85;72.13;101483.30;125200;1102;101796;-72
2023/10/03 06:20:57;;;;;;;27.30;9.50;;;;;;;10.88;71.83;101476.46;126106;1100;102154;-73
2023/10/03 06:23:33;;;;;;;25.07;8.83;;;;;;;10.97;71.90;101483.91;125886;1099;101924;-72
2023/10/03 06:26:05;;;;;;;25.73;8.73;;;;;;;11.03;71.09;101478.96;124324;1102;101831;-73
2023/10/03 06:28:49;;;;;;;32.67;9.80;;;;;;;11.10;71.42;101485.41;125988;1098;101829;-74
2023/10/03 06:31:26;;;;;;;31.00;8.90;;;;;;;11.17;70.85;101494.48;127161;1100;101201;-75
2023/10/03 06:34:00;;;;;;;31.83;9.50;;;;;;;11.24;71.11;101488.72;126707;1101;101940;-74
2023/10/03 06:36:54;;;;;;;25.50;8.73;;;;;;;11.32;71.25;101489.98;126932;1101;101778;-74
2023/10/03 06:39:54;;;;;;;29.33;8.40;;;;;;;11.44;70.62;101500.20;126547;1098;102037;-76
2023/10/03 06:42:47;;;;;;;25.50;8.60;;;;;;;11.56;70.72;101491.98;125281;1099;102361;-74
2023/10/03 06:45:21;;;;;;;26.80;8.23;;;;;;;11.69;70.13;101497.00;124587;1102;104272;-75
2023/10/03 06:47:56;;;;;;;28.07;9.10;;;;;;;11.83;70.19;101498.53;125809;1099;102820;-73
2023/10/03 06:50:30;;;;;;;25.27;9.10;;;;;;;11.98;69.46;101493.12;124636;1102;104242;-74
2023/10/03 06:53:05;;;;;;;27.03;8.73;;;;;;;12.16;69.58;101493.05;124404;1099;104274;-72
2023/10/03 06:55:40;;;;;;;23.83;8.10;;;;;;;12.31;69.55;101495.48;126067;1101;101857;-76
2023/10/03 07:04:50;;;;;;;30.30;8.50;;;;;;;12.87;68.62;101496.14;125460;1102;101899;-75
2023/10/03 07:11:01;;;;;;;23.90;8.27;;;;;;;13.28;68.36;101491.66;126272;1100;110331;-78
2023/10/03 07:13:44;;;;;;;29.53;7.83;;;;;;;13.43;67.92;101491.42;126207;1101;104181;-80
2023/10/03 07:16:23;;;;;;;22.93;8.10;;;;;;;13.58;68.23;101493.75;125866;1102;102025;-79
2023/10/03 07:19:15;;;;;;;27.93;8.97;;;;;;;13.74;67.40;101489.96;125462;1101;104192;-78
2023/10/03 07:22:21;;;;;;;28.03;8.37;;;;;;;13.94;67.76;101487.20;124588;1102;104169;-74
2023/10/03 07:25:46;;;;;;;30.37;8.93;;;;;;;14.13;67.25;101489.70;124437;1102;101910;-76
2023/10/03 07:29:05;;;;;;;25.00;8.27;;;;;;;14.31;66.51;101491.20;124369;1100;101903;-74
2023/10/03 07:31:57;;;;;;;;;;;;;;;;;;;;;
2023/10/03 07:34:46;;;;;;;31.93;8.53;;;;;;;14.61;66.67;101483.49;125776;1099;102091;-75
2023/10/03 07:37:22;;;;;;;23.77;8.10;;;;;;;14.74;66.04;101493.66;124544;1102;102492;-77
2023/10/03 07:39:59;;;;;;;23.63;7.87;;;;;;;14.89;66.19;101485.33;125005;1102;101871;-76
2023/10/03 07:42:34;;;;;;;30.15;8.90;;;;;;;15.03;65.43;101488.44;126989;1101;101229;-80
2023/10/03 07:45:43;;;;;;;24.43;8.70;;;;;;;15.14;64.91;101488.80;126125;1102;102565;-78
2023/10/03 07:48:27;;;;;;;26.60;8.07;;;;;;;15.28;65.56;101481.31;126401;1101;104118;-78
2023/10/03 07:51:13;;;;;;;21.90;7.90;;;;;;;15.44;65.10;101486.25;125241;1102;104169;-79
2023/10/03 07:54:21;;;;;;;24.73;8.20;;;;;;;15.61;65.38;101478.84;125228;1102;101781;-77
2023/10/03 07:57:09;;;;;;;31.00;8.23;;;;;;;15.71;65.06;101485.31;124407;1102;101982;-78
2023/10/03 07:59:59;;;;;;;25.72;8.05;;;;;;;15.85;64.35;101479.55;125637;1101;104288;-75
2023/10/03 08:02:43;;;;;;;22.83;7.77;;;;;;;15.99;64.35;101480.87;124206;1102;107407;-76
2023/10/03 08:05:17;;;;;;;23.43;7.70;;;;;;;16.16;63.41;101489.30;124223;1102;104480;-75
2023/10/03 08:07:57;;;;;;;29.17;7.90;;;;;;;16.28;63.70;101484.36;124234;1101;101825;-75
2023/10/03 08:10:33;;;;;;;25.93;7.20;;;;;;;16.43;62.86;101478.56;124249;1102;101861;-76
2023/10/03 08:13:07;;;;;;;23.90;7.43;;;;;;;16.53;62.99;101471.76;124084;1101;117843;-76
2023/10/03 08:15:42;;;;;;;21.20;7.43;;;;;;;16.64;62.12;101474.69;124156;1102;102288;-76
2023/10/03 08:18:19;;;;;;;23.90;7.47;;;;;;;16.79;61.92;101469.80;124117;1102;104333;-75
2023/10/03 08:21:03;;;;;;;22.97;7.13;;;;;;;16.97;61.92;101473.80;125801;1101;102372;-77
2023/10/03 08:24:09;;;;;;;24.90;7.37;;;;;;;17.13;61.64;101475.98;124541;1102;102545;-77
2023/10/03 08:26:50;;;;;;;22.80;6.97;;;;;;;17.29;61.63;101461.32;125691;1100;101952;-75
2023/10/03 08:29:25;;;;;;;21.33;6.93;;;;;;;17.48;61.30;101465.28;125596;1101;102231;-75
2023/10/03 08:32:04;;;;;;;22.77;6.20;;;;;;;17.60;60.79;101462.91;124283;1102;101890;-74
2023/10/03 08:34:44;;;;;;;23.67;6.20;;;;;;;17.73;60.58;101463.19;124947;1101;104195;-77
2023/10/03 08:37:24;;;;;;;17.63;6.17;;;;;;;17.89;60.43;101460.04;125330;1102;104223;-76
2023/10/03 08:40:19;;;;;;;23.30;6.08;;;;;;;18.08;59.82;101455.99;125601;1102;102260;-80
2023/10/03 08:42:53;;;;;;;;;;;;;;;18.30;58.34;101454.65;125120;1100;104172;-74
2023/10/03 08:45:27;;;;;;;;;;;;;;;18.44;58.01;101446.94;124831;1101;104255;-73
2023/10/03 08:48:23;;;;;;;21.27;6.03;;;;;;;18.43;57.68;101445.17;124180;1102;102536;-76
2023/10/03 08:53:35;;;;;;;23.07;6.63;;;;;;;18.45;55.57;101442.50;124247;1102;101924;-75
2023/10/03 08:56:17;;;;;;;21.97;6.67;;;;;;;18.43;54.71;101441.59;124146;1102;104341;-75
2023/10/03 08:58:52;;;;;;;19.17;6.10;;;;;;;18.43;54.18;101445.17;124205;1102;101985;-76
2023/10/03 09:01:37;;;;;;;22.83;6.67;;;;;;;18.49;53.96;101436.39;124172;1100;104316;-73
2023/10/03 09:04:16;;;;;;;19.20;6.17;;;;;;;18.57;54.89;101433.87;124210;1102;102100;-75
2023/10/03 09:07:00;;;;;;;22.80;6.40;;;;;;;18.68;55.12;101434.95;124583;1101;104346;-75
2023/10/03 09:09:41;;;;;;;20.90;6.07;;;;;;;18.74;54.11;101435.05;124247;1102;102274;-75
2023/10/03 09:12:20;;;;;;;20.17;5.67;;;;;;;18.82;55.17;101424.55;124249;1102;102388;-77
2023/10/03 09:14:54;;;;;;;20.27;6.80;;;;;;;18.84;53.19;101433.47;125619;1102;110784;-76
2023/10/03 09:17:39;;;;;;;18.27;6.07;;;;;;;18.83;51.99;101429.01;125887;1102;101703;-79
2023/10/03 09:20:20;;;;;;;21.77;6.77;;;;;;;18.81;51.42;101423.66;125782;1100;101876;-78
2023/10/03 09:23:22;;;;;;;21.80;6.40;;;;;;;18.88;51.60;101424.68;126442;1099;101820;-80
2023/10/03 09:26:22;;;;;;;22.87;7.00;;;;;;;18.97;51.75;101424.83;125394;1102;101795;-78
2023/10/03 09:29:09;;;;;;;20.63;6.90;;;;;;;19.09;51.33;101417.91;125520;1102;104264;-77
2023/10/03 09:32:20;;;;;;;22.67;7.00;;;;;;;19.21;51.95;101426.99;125807;1101;102022;-75
2023/10/03 09:35:28;;;;;;;19.27;6.67;;;;;;;19.24;50.64;101417.25;125794;1102;104245;-75
2023/10/03 09:38:34;;;;;;;20.30;7.57;;;;;;;19.29;50.45;101415.55;125550;1100;101964;-75
2023/10/03 09:41:21;;;;;;;22.80;7.27;;;;;;;19.44;50.03;101414.88;124404;1102;104223;-77
2023/10/03 09:44:29;;;;;;;25.00;7.77;;;;;;;19.53;50.27;101412.34;124411;1102;102210;-75
2023/10/03 09:47:41;;;;;;;21.63;8.37;;;;;;;19.65;50.89;101415.17;125634;1102;101813;-76
2023/10/03 09:50:37;;;;;;;21.20;6.97;;;;;;;19.76;50.20;101412.65;125525;1100;101947;-75
2023/10/03 09:53:17;;;;;;;23.23;7.30;;;;;;;19.79;48.78;101411.80;126572;1100;101916;-78
2023/10/03 09:56:11;;;;;;;23.20;7.60;;;;;;;19.79;48.93;101402.06;126141;1096;104054;-76
2023/10/03 09:59:17;;;;;;;21.27;7.53;;;;;;;19.79;48.65;101393.16;125691;1099;102083;-77
2023/10/03 10:02:09;;;;;;;22.00;7.73;;;;;;;19.83;49.04;101390.55;125929;1100;104332;-79
2023/10/03 10:04:51;;;;;;;22.53;7.20;;;;;;;19.89;48.15;101387.96;125689;1101;104270;-74
2023/10/03 10:07:34;;;;;;;20.10;7.50;;;;;;;20.00;48.51;101384.54;124613;1099;104296;-75
2023/10/03 10:10:19;;;;;;;22.75;7.50;;;;;;;20.09;48.19;101380.20;125248;1101;103659;-73
2023/10/03 10:13:13;;;;;;;24.70;8.03;;;;;;;20.14;48.23;101382.91;124592;1102;102354;-74
2023/10/03 10:16:20;;;;;;;24.30;7.78;;;;;;;20.22;48.36;101381.20;124268;1102;101868;-75
2023/10/03 10:19:01;;;;;;;21.43;7.60;;;;;;;20.29;48.13;101377.73;125934;1102;101931;-78
2023/10/03 10:21:38;;;;;;;26.97;7.93;;;;;;;20.31;47.08;101369.75;126441;1098;102169;-75
2023/10/03 10:24:40;;;;;;;20.73;7.70;;;;;;;20.37;46.94;101369.81;125615;1102;104070;-76
2023/10/03 10:27:37;;;;;;;21.83;7.90;;;;;;;20.42;47.18;101361.86;126052;1099;101880;-77
2023/10/03 10:30:15;;;;;;;21.47;7.63;;;;;;;20.50;46.67;101361.92;126917;1100;101961;-75
2023/10/03 10:33:20;;;;;;;20.77;7.47;;;;;;;20.52;47.06;101362.82;125982;1101;102010;-76
2023/10/03 10:36:00;;;;;;;20.20;7.37;;;;;;;20.57;46.78;101353.08;126074;1098;101927;-73
2023/10/03 10:39:09;;;;;;;25.67;7.90;;;;;;;20.63;46.26;101347.80;125299;1102;102025;-75
2023/10/03 10:41:45;;;;;;;23.33;7.23;;;;;;;20.69;46.54;101337.21;126013;1098;102118;-76
2023/10/03 10:44:21;;;;;;;20.83;7.80;;;;;;;20.76;45.82;101340.84;126261;1101;101828;-76
2023/10/03 10:47:10;;;;;;;26.17;8.10;;;;;;;20.75;45.33;101341.70;125719;1100;118243;-77
2023/10/03 10:50:04;;;;;;;23.15;7.55;;;;;;;20.77;46.06;101334.59;125956;1098;101840;-77
2023/10/03 10:52:55;;;;;;;27.17;7.97;;;;;;;20.77;46.19;101327.52;126048;1101;101737;-77
2023/10/03 10:55:34;;;;;;;21.23;7.50;;;;;;;20.81;45.21;101333.75;125823;1099;104245;-77
2023/10/03 10:58:13;;;;;;;21.60;7.30;;;;;;;20.83;45.30;101323.97;125846;1102;101687;-79
2023/10/03 11:00:47;;;;;;;22.73;7.40;;;;;;;20.80;44.23;101316.87;127123;1099;101914;-78
2023/10/03 11:03:26;;;;;;;21.90;7.40;;;;;;;20.82;44.43;101317.76;127025;1100;102071;-76
2023/10/03 11:06:01;;;;;;;21.30;7.50;;;;;;;20.85;44.14;101318.65;125651;1099;101878;-76
2023/10/03 11:08:50;;;;;;;25.77;8.30;;;;;;;20.89;44.67;101307.13;126082;1099;101600;-77
2023/10/03 11:14:55;;;;;;;21.37;7.80;;;;;;;21.03;43.70;101307.20;126039;1099;101988;-77
2023/10/03 11:17:52;;;;;;;26.00;7.60;;;;;;;21.04;43.88;101304.55;126789;1098;108976;-78
2023/10/03 11:20:28;;;;;;;23.60;7.83;;;;;;;21.04;43.21;101293.88;125854;1098;101955;-76
2023/10/03 11:23:04;;;;;;;21.20;7.43;;;;;;;21.06;43.04;101297.44;124307;1102;102517;-76
2023/10/03 11:25:58;;;;;;;20.80;7.57;;;;;;;21.10;42.60;101301.91;124299;1099;104259;-74
2023/10/03 11:28:51;;;;;;;22.63;7.77;;;;;;;21.10;42.79;101288.57;126039;1098;102048;-77
2023/10/03 11:31:29;;;;;;;22.03;8.10;;;;;;;21.13;43.00;101288.59;124822;1099;101877;-78
2023/10/03 11:34:03;;;;;;;21.90;7.90;;;;;;;21.16;43.00;101293.94;124488;1102;104258;-79
2023/10/03 11:36:47;;;;;;;21.70;7.28;;;;;;;21.17;42.57;101287.70;125269;1102;102288;-79
2023/10/03 11:39:37;;;;;;;;;;;;;;;21.16;41.51;101285.94;124549;1102;104216;-76
2023/10/03 11:42:27;;;;;;;20.53;7.87;;;;;;;21.17;41.60;101285.03;125619;1099;101947;-77
2023/10/03 11:45:20;;;;;;;;;;;;;;;;;;;;;
2023/10/03 11:48:22;;;;;;;19.07;7.40;;;;;;;21.18;41.30;101272.59;125311;1100;101868;-78
2023/10/03 11:51:04;;;;;;;23.33;8.03;;;;;;;21.20;42.20;101278.82;125852;1102;104233;-77
2023/10/03 11:53:49;;;;;;;20.53;7.33;;;;;;;21.19;41.68;101271.69;124457;1102;104198;-75
2023/10/03 11:56:39;;;;;;;22.73;8.07;;;;;;;21.22;41.08;101262.81;124600;1102;102454;-75
2023/10/03 11:59:33;;;;;;;20.30;7.40;;;;;;;21.21;41.15;101263.69;124966;1099;101877;-77
2023/10/03 12:02:47;;;;;;;20.70;7.75;;;;;;;21.17;40.71;101258.34;124507;1099;102128;-79
2023/10/03 12:09:17;;;;;;;22.83;8.30;;;;;;;21.18;40.30;101249.46;126230;1101;101764;-78
2023/10/03 12:12:03;;;;;;;18.93;7.43;;;;;;;21.19;40.99;101250.34;125959;1101;102345;-79
2023/10/03 12:15:02;;;;;;;22.73;7.53;;;;;;;21.14;39.99;101247.65;125977;1098;102230;-80
2023/10/03 12:18:04;;;;;;;20.23;7.92;;;;;;;21.08;40.86;101242.29;125058;1099;102105;-79
2023/10/03 12:21:09;;;;;;;21.13;7.50;;;;;;;21.05;40.63;101230.72;125973;1098;101961;-79
2023/10/03 12:24:11;;;;;;;21.93;7.67;;;;;;;21.05;40.16;101225.39;125916;1099;101782;-78